createdAt,value
2018-07-17T00:00:23.062Z,17.05
2018-07-17T00:02:50.888Z,17.62
2018-07-17T00:05:18.671Z,18.10
2018-07-17T00:07:46.440Z,16.10
2018-07-17T00:10:14.232Z,15.60
2018-07-17T00:12:42.044Z,14.58
2018-07-17T00:15:09.856Z,15.00
2018-07-17T00:17:37.677Z,13.60
2018-07-17T00:20:05.495Z,14.13
2018-07-17T00:22:33.277Z,13.03
2018-07-17T00:25:01.059Z,11.93
2018-07-17T00:27:28.865Z,11.65
2018-07-17T00:29:56.655Z,13.30
2018-07-17T00:32:24.453Z,11.00
2018-07-17T00:34:52.243Z,11.22
2018-07-17T00:37:20.073Z,10.03
2018-07-17T00:39:47.879Z,8.85
2018-07-17T00:42:16.678Z,9.45
2018-07-17T00:44:44.489Z,9.60
2018-07-17T00:47:12.272Z,8.00
2018-07-17T00:49:40.100Z,8.18
2018-07-17T00:52:07.960Z,11.00
2018-07-17T00:54:35.829Z,7.55
2018-07-17T00:57:03.616Z,8.40
2018-07-17T00:59:31.376Z,9.80
2018-07-17T01:02:04.799Z,7.40
2018-07-17T01:04:39.206Z,7.50
2018-07-17T01:07:12.551Z,6.37
2018-07-17T01:09:45.844Z,7.60
2018-07-17T01:12:13.118Z,6.53
2018-07-17T01:15:48.111Z,6.58
2018-07-17T01:18:15.953Z,5.80
2018-07-17T01:20:44.749Z,5.67
2018-07-17T01:23:12.525Z,5.20
2018-07-17T01:25:40.300Z,5.67
2018-07-17T01:28:08.105Z,5.47
2018-07-17T01:30:35.891Z,6.50
2018-07-17T01:33:03.705Z,6.80
2018-07-17T01:35:31.500Z,5.28
2018-07-17T01:37:59.269Z,5.85
2018-07-17T01:40:27.103Z,5.72
2018-07-17T01:42:54.898Z,5.47
2018-07-17T01:45:22.732Z,5.08
2018-07-17T01:47:50.638Z,4.30
2018-07-17T01:50:18.424Z,5.42
2018-07-17T01:52:46.282Z,6.12
2018-07-17T01:55:14.083Z,6.30
2018-07-17T01:57:41.921Z,6.92
2018-07-17T02:00:09.760Z,6.42
2018-07-17T02:02:37.592Z,7.12
2018-07-17T02:05:05.541Z,9.60
2018-07-17T02:07:33.315Z,7.08
2018-07-17T02:10:01.140Z,6.67
2018-07-17T02:12:28.960Z,7.62
2018-07-17T02:14:56.838Z,7.95
2018-07-17T02:17:25.703Z,7.72
2018-07-17T02:19:53.529Z,6.85
2018-07-17T02:22:21.362Z,7.62
2018-07-17T02:24:49.244Z,7.47
2018-07-17T02:27:17.024Z,9.13
2018-07-17T02:29:45.763Z,9.65
2018-07-17T02:32:13.632Z,9.33
2018-07-17T02:34:42.489Z,9.08
2018-07-17T02:37:10.316Z,10.25
2018-07-17T02:39:39.129Z,10.58
2018-07-17T02:42:07.091Z,9.10
2018-07-17T02:44:34.870Z,10.58
2018-07-17T02:47:02.660Z,11.38
2018-07-17T02:49:30.523Z,10.05
2018-07-17T02:51:58.299Z,9.55
2018-07-17T02:54:26.154Z,18.35
2018-07-17T02:56:54.998Z,17.98
2018-07-17T02:59:22.890Z,12.73
2018-07-17T03:01:51.818Z,10.40
2018-07-17T03:04:20.275Z,11.28
2018-07-17T03:06:48.186Z,11.57
2018-07-17T03:09:16.044Z,11.05
2018-07-17T03:11:44.898Z,11.53
2018-07-17T03:14:12.739Z,10.50
2018-07-17T03:16:40.575Z,10.98
2018-07-17T03:19:08.397Z,13.98
2018-07-17T03:21:36.263Z,11.68
2018-07-17T03:24:04.092Z,14.83
2018-07-17T03:26:31.945Z,11.63
2018-07-17T03:28:59.867Z,11.53
2018-07-17T03:31:27.642Z,10.98
2018-07-17T03:33:55.433Z,13.58
2018-07-17T03:36:23.292Z,10.40
2018-07-17T03:38:51.059Z,12.33
2018-07-17T03:41:18.875Z,11.60
2018-07-17T03:43:46.735Z,12.68
2018-07-17T03:46:14.524Z,12.90
2018-07-17T03:48:42.352Z,14.05
2018-07-17T03:51:10.153Z,15.58
2018-07-17T03:53:39.037Z,15.88
2018-07-17T03:56:06.914Z,15.40
2018-07-17T03:58:34.770Z,13.55
2018-07-17T04:01:02.643Z,16.80
2018-07-17T04:03:30.478Z,17.35
2018-07-17T04:05:59.272Z,16.77
2018-07-17T04:08:27.048Z,15.05
2018-07-17T04:10:54.934Z,14.38
2018-07-17T04:13:22.746Z,15.05
2018-07-17T04:15:50.617Z,19.75
2018-07-17T04:18:18.540Z,18.37
2018-07-17T04:20:46.373Z,15.90
2018-07-17T04:23:14.191Z,21.65
2018-07-17T04:25:42.049Z,17.70
2018-07-17T04:28:09.855Z,16.80
2018-07-17T04:30:37.637Z,16.20
2018-07-17T04:33:07.444Z,19.77
2018-07-17T04:35:35.317Z,17.17
2018-07-17T04:38:03.164Z,18.05
2018-07-17T04:40:31.026Z,16.23
2018-07-17T04:42:58.849Z,19.77
2018-07-17T04:45:26.632Z,22.80
2018-07-17T04:47:54.459Z,17.48
2018-07-17T04:50:22.249Z,20.60
2018-07-17T04:52:51.145Z,19.05
2018-07-17T04:55:19.116Z,21.80
2018-07-17T04:57:46.910Z,18.48
2018-07-17T05:00:14.739Z,19.05
2018-07-17T05:02:42.553Z,21.48
2018-07-17T05:05:11.380Z,18.27
2018-07-17T05:07:39.222Z,18.90
2018-07-17T05:10:07.280Z,22.15
2018-07-17T05:12:35.066Z,22.65
2018-07-17T05:15:03.073Z,21.90
2018-07-17T05:17:30.933Z,21.68
2018-07-17T05:19:58.759Z,23.22
2018-07-17T05:22:26.695Z,24.30
2018-07-17T05:24:54.513Z,25.15
2018-07-17T05:27:22.392Z,25.50
2018-07-17T05:29:50.240Z,26.93
2018-07-17T05:32:18.089Z,23.77
2018-07-17T05:34:45.886Z,30.07
2018-07-17T05:37:13.748Z,29.63
2018-07-17T05:39:41.656Z,27.17
2018-07-17T05:42:09.480Z,29.48
2018-07-17T05:44:37.276Z,32.28
2018-07-17T05:47:05.035Z,32.23
2018-07-17T05:56:15.894Z,44.73
2018-07-17T05:58:43.703Z,54.85
2018-07-17T06:01:11.569Z,56.53
2018-07-17T06:03:40.568Z,51.70
2018-07-17T06:06:08.460Z,51.73
2018-07-17T06:08:38.412Z,55.58
2018-07-17T06:11:06.357Z,55.92
2018-07-17T06:13:34.381Z,54.85
2018-07-17T06:16:02.277Z,59.05
2018-07-17T06:18:30.141Z,55.05
2018-07-17T06:20:57.952Z,51.25
2018-07-17T06:23:25.816Z,55.35
2018-07-17T06:25:53.732Z,51.75
2018-07-17T06:28:21.634Z,50.90
2018-07-17T06:30:50.485Z,52.33
2018-07-17T06:33:18.398Z,49.55
2018-07-17T06:35:46.289Z,45.88
2018-07-17T06:38:14.158Z,46.25
2018-07-17T06:40:42.049Z,43.95
2018-07-17T06:43:09.865Z,40.92
2018-07-17T06:45:38.709Z,39.75
2018-07-17T06:48:06.572Z,41.90
2018-07-17T06:50:34.526Z,37.88
2018-07-17T06:53:02.285Z,38.70
2018-07-17T06:55:30.109Z,33.53
2018-07-17T06:57:58.029Z,39.48
2018-07-17T07:00:25.870Z,38.65
2018-07-17T07:02:53.757Z,39.30
2018-07-17T07:05:21.669Z,33.60
2018-07-17T07:07:49.484Z,33.08
2018-07-17T07:10:17.234Z,36.65
2018-07-17T07:12:45.022Z,33.40
2018-07-17T07:15:12.935Z,31.45
2018-07-17T07:17:40.843Z,30.62
2018-07-17T07:20:08.826Z,32.60
2018-07-17T07:22:36.780Z,34.45
2018-07-17T07:25:04.647Z,33.25
2018-07-17T07:27:32.517Z,29.57
2018-07-17T07:30:01.415Z,36.65
2018-07-17T07:32:29.326Z,32.53
2018-07-17T07:34:57.215Z,31.05
2018-07-17T07:37:25.200Z,31.75
2018-07-17T07:39:53.107Z,26.27
2018-07-17T07:42:21.028Z,28.70
2018-07-17T07:44:48.907Z,28.25
2018-07-17T07:47:16.761Z,29.35
2018-07-17T07:49:44.643Z,31.55
2018-07-17T07:52:12.506Z,27.85
2018-07-17T07:54:40.369Z,31.80
2018-07-17T07:57:08.503Z,26.77
2018-07-17T07:59:36.406Z,23.40
2018-07-17T08:02:05.367Z,24.55
2018-07-17T08:04:33.332Z,23.83
2018-07-17T08:07:02.299Z,20.15
2018-07-17T08:09:30.193Z,19.67
2018-07-17T08:11:58.081Z,24.05
2018-07-17T08:14:25.865Z,20.90
2018-07-17T08:16:53.699Z,19.25
2018-07-17T08:19:21.523Z,17.40
2018-07-17T08:21:49.494Z,19.48
2018-07-17T08:24:17.425Z,15.53
2018-07-17T08:26:45.335Z,17.37
2018-07-17T08:29:13.182Z,11.78
2018-07-17T08:31:41.057Z,14.58
2018-07-17T08:34:09.013Z,9.80
2018-07-17T08:36:36.911Z,7.65
2018-07-17T08:39:06.579Z,10.70
2018-07-17T08:41:34.406Z,9.68
2018-07-17T08:44:02.235Z,8.33
2018-07-17T08:46:30.091Z,8.75
2018-07-17T08:48:57.935Z,10.95
2018-07-17T08:51:25.807Z,6.65
2018-07-17T08:53:54.671Z,9.20
2018-07-17T08:56:23.482Z,7.97
2018-07-17T08:58:51.280Z,5.90
2018-07-17T09:01:19.279Z,5.78
2018-07-17T09:03:47.207Z,5.15
2018-07-17T09:06:15.120Z,9.45
2018-07-17T09:08:42.992Z,3.42
2018-07-17T09:11:10.887Z,2.25
2018-07-17T09:13:38.771Z,3.10
2018-07-17T09:16:06.610Z,3.22
2018-07-17T09:18:35.570Z,2.33
2018-07-17T09:21:04.531Z,1.80
2018-07-17T09:23:32.386Z,2.17
2018-07-17T09:26:00.236Z,3.47
2018-07-17T09:28:28.126Z,3.87
2018-07-17T09:31:00.804Z,3.52
2018-07-17T09:33:30.788Z,4.08
2018-07-17T09:35:59.278Z,4.03
2018-07-17T09:38:27.143Z,2.70
2018-07-17T09:40:54.958Z,2.05
2018-07-17T09:43:24.902Z,3.40
2018-07-17T09:45:52.776Z,2.45
2018-07-17T09:48:20.661Z,1.90
2018-07-17T09:50:48.529Z,1.27
2018-07-17T09:53:16.435Z,3.02
2018-07-17T09:55:44.260Z,2.90
2018-07-17T09:58:13.096Z,5.62
2018-07-17T10:00:46.526Z,2.37
2018-07-17T10:03:14.450Z,3.47
2018-07-17T10:05:42.375Z,1.98
2018-07-17T10:08:10.234Z,2.83
2018-07-17T10:10:38.117Z,5.03
2018-07-17T10:13:06.154Z,1.98
2018-07-17T10:15:35.149Z,2.58
2018-07-17T10:18:03.072Z,5.17
2018-07-17T10:20:30.981Z,1.62
2018-07-17T10:22:58.867Z,2.52
2018-07-17T10:25:28.756Z,1.55
2018-07-17T10:27:56.622Z,1.20
2018-07-17T10:30:24.545Z,4.45
2018-07-17T10:32:52.447Z,3.25
2018-07-17T10:35:20.265Z,4.53
2018-07-17T10:37:48.173Z,3.83
2018-07-17T10:40:16.032Z,3.37
2018-07-17T10:42:43.932Z,3.83
2018-07-17T10:45:11.775Z,2.70
2018-07-17T10:47:39.804Z,6.70
2018-07-17T10:50:07.764Z,2.05
2018-07-17T10:52:37.723Z,2.40
2018-07-17T10:55:05.614Z,2.62
2018-07-17T10:57:33.490Z,1.87
2018-07-17T11:00:01.436Z,3.22
2018-07-17T11:02:29.354Z,3.83
2018-07-17T11:04:58.292Z,5.05
2018-07-17T11:07:26.151Z,2.58
2018-07-17T11:09:53.997Z,1.05
2018-07-17T11:12:21.870Z,4.75
2018-07-17T11:14:49.695Z,2.05
2018-07-17T11:17:17.504Z,1.87
2018-07-17T11:19:45.349Z,0.98
2018-07-17T11:22:13.228Z,1.22
2018-07-17T11:24:41.079Z,5.50
2018-07-17T11:27:08.980Z,1.32
2018-07-17T11:29:36.950Z,3.00
2018-07-17T11:32:05.925Z,4.87
2018-07-17T11:34:33.869Z,0.72
2018-07-17T11:37:05.488Z,1.98
2018-07-17T11:39:33.360Z,1.40
2018-07-17T11:42:01.273Z,6.30
2018-07-17T11:44:29.407Z,3.20
2018-07-17T11:46:57.340Z,1.30
2018-07-17T11:49:25.191Z,2.67
2018-07-17T11:51:53.077Z,2.70
2018-07-17T11:54:20.966Z,2.98
2018-07-17T11:56:48.873Z,1.90
2018-07-17T11:59:18.773Z,3.27
2018-07-17T12:01:46.507Z,7.15
2018-07-17T12:04:15.335Z,3.58
2018-07-17T12:06:43.201Z,5.25
2018-07-17T12:09:11.058Z,1.95
2018-07-17T12:11:39.446Z,6.78
2018-07-17T12:14:07.310Z,4.65
2018-07-17T12:16:35.129Z,1.75
2018-07-17T12:19:04.071Z,3.90
2018-07-17T12:21:31.913Z,1.57
2018-07-17T12:24:00.792Z,2.25
2018-07-17T12:26:28.806Z,6.83
2018-07-17T12:28:56.669Z,7.12
2018-07-17T12:31:24.553Z,0.88
2018-07-17T12:33:52.537Z,10.80
2018-07-17T12:36:20.477Z,7.50
2018-07-17T12:38:48.296Z,2.72
2018-07-17T12:41:16.221Z,6.22
2018-07-17T12:43:44.120Z,3.92
2018-07-17T12:46:12.874Z,4.95
2018-07-17T12:48:40.717Z,3.08
2018-07-17T12:51:08.595Z,4.30
2018-07-17T12:53:36.519Z,4.70
2018-07-17T12:56:04.576Z,2.20
2018-07-17T12:58:32.406Z,3.62
2018-07-17T13:01:00.285Z,3.95
2018-07-17T13:03:28.081Z,3.75
2018-07-17T13:05:56.090Z,7.28
2018-07-17T13:08:23.980Z,7.08
2018-07-17T13:10:51.918Z,1.10
2018-07-17T13:13:19.827Z,1.80
2018-07-17T13:15:47.765Z,3.25
2018-07-17T13:18:15.621Z,1.82
2018-07-17T13:20:43.766Z,2.00
2018-07-17T13:23:11.724Z,3.40
2018-07-17T13:25:39.745Z,2.37
2018-07-17T13:28:07.715Z,2.22
2018-07-17T13:30:35.605Z,2.40
2018-07-17T13:33:03.542Z,1.65
2018-07-17T13:35:31.462Z,4.15
2018-07-17T13:37:59.334Z,0.93
2018-07-17T13:40:27.247Z,1.55
2018-07-17T13:42:55.178Z,2.37
2018-07-17T13:45:23.065Z,1.92
2018-07-17T13:47:50.997Z,2.00
2018-07-17T13:57:01.931Z,5.50
2018-07-17T13:59:29.838Z,2.42
2018-07-17T14:01:57.729Z,2.35
2018-07-17T14:04:25.591Z,2.15
2018-07-17T14:06:53.549Z,1.45
2018-07-17T14:09:21.319Z,0.57
2018-07-17T14:11:49.277Z,4.60
2018-07-17T14:14:17.117Z,3.75
2018-07-17T14:16:45.014Z,0.40
2018-07-17T14:19:12.819Z,0.70
2018-07-17T14:21:40.721Z,2.33
2018-07-17T14:24:08.514Z,2.98
2018-07-17T14:26:36.432Z,1.92
2018-07-17T14:29:04.478Z,1.17
2018-07-17T14:31:32.353Z,1.12
2018-07-17T14:34:00.242Z,1.60
2018-07-17T14:36:28.114Z,0.68
2018-07-17T14:38:56.015Z,1.00
2018-07-17T14:41:23.932Z,0.55
2018-07-17T14:43:51.782Z,1.55
2018-07-17T14:46:19.668Z,1.10
2018-07-17T14:48:47.544Z,0.60
2018-07-17T14:51:15.448Z,2.87
2018-07-17T14:53:44.349Z,1.10
2018-07-17T14:56:12.256Z,1.02
2018-07-17T14:58:40.186Z,1.00
2018-07-17T15:01:08.140Z,0.60
2018-07-17T15:03:36.021Z,1.27
2018-07-17T15:06:04.193Z,1.95
2018-07-17T15:08:32.163Z,1.27
2018-07-17T15:11:02.176Z,0.80
2018-07-17T15:13:30.050Z,1.85
2018-07-17T15:15:57.990Z,3.35
2018-07-17T15:18:25.869Z,2.85
2018-07-17T15:20:53.769Z,0.28
2018-07-17T15:23:21.616Z,1.17
2018-07-17T15:25:50.547Z,3.70
2018-07-17T15:28:18.420Z,1.07
2018-07-17T15:30:46.270Z,0.68
2018-07-17T15:33:14.173Z,1.45
2018-07-17T15:35:42.019Z,0.85
2018-07-17T15:38:09.898Z,2.45
2018-07-17T15:40:37.783Z,0.70
2018-07-17T15:43:06.224Z,1.60
2018-07-17T15:45:34.008Z,1.30
2018-07-17T15:48:02.362Z,3.27
2018-07-17T15:50:30.196Z,1.50
2018-07-17T15:52:58.039Z,0.55
2018-07-17T15:55:25.924Z,3.40
2018-07-17T15:57:53.804Z,0.50
2018-07-17T16:00:21.674Z,1.45
2018-07-17T16:02:49.542Z,0.40
2018-07-17T16:05:17.435Z,2.20
2018-07-17T16:07:45.319Z,0.82
2018-07-17T16:10:13.193Z,1.00
2018-07-17T16:12:41.069Z,1.25
2018-07-17T16:15:09.029Z,0.85
2018-07-17T16:17:36.895Z,4.08
2018-07-17T16:20:05.261Z,1.05
2018-07-17T16:23:35.796Z,1.92
2018-07-17T16:26:03.762Z,1.82
2018-07-17T16:28:31.510Z,2.12
2018-07-17T16:30:59.419Z,2.62
2018-07-17T16:33:27.313Z,0.80
2018-07-17T16:35:55.205Z,0.37
2018-07-17T16:38:23.054Z,2.55
2018-07-17T16:40:50.908Z,2.10
2018-07-17T16:43:18.865Z,0.50
2018-07-17T16:45:47.753Z,2.47
2018-07-17T16:48:15.757Z,1.30
2018-07-17T16:50:43.652Z,2.70
2018-07-17T16:53:11.581Z,0.90
2018-07-17T16:55:39.398Z,0.62
2018-07-17T16:58:07.200Z,1.95
2018-07-17T17:00:35.069Z,1.85
2018-07-17T17:03:02.910Z,0.62
2018-07-17T17:05:30.983Z,0.53
2018-07-17T17:07:59.887Z,1.32
2018-07-17T17:10:27.786Z,1.37
2018-07-17T17:12:55.746Z,3.27
2018-07-17T17:15:23.625Z,0.20
2018-07-17T17:17:51.545Z,2.45
2018-07-17T17:20:19.639Z,0.40
2018-07-17T17:22:47.640Z,1.75
2018-07-17T17:25:15.548Z,2.58
2018-07-17T17:27:43.368Z,3.05
2018-07-17T17:30:11.224Z,1.25
2018-07-17T17:32:39.129Z,0.80
2018-07-17T17:35:07.000Z,1.10
2018-07-17T17:37:35.907Z,0.65
2018-07-17T17:40:03.765Z,3.40
2018-07-17T17:42:31.500Z,2.02
2018-07-17T17:44:59.316Z,1.98
2018-07-17T17:47:27.224Z,2.80
2018-07-17T17:49:55.074Z,1.50
2018-07-17T17:52:22.907Z,1.27
2018-07-17T17:54:50.661Z,5.00
2018-07-17T17:57:18.470Z,2.40
2018-07-17T17:59:46.342Z,0.95
2018-07-17T18:02:14.228Z,1.00
2018-07-17T18:04:42.047Z,1.95
2018-07-17T18:07:09.855Z,5.10
2018-07-17T18:09:37.723Z,3.62
2018-07-17T18:12:05.737Z,2.10
2018-07-17T18:14:33.554Z,1.50
2018-07-17T18:17:01.382Z,3.02
2018-07-17T18:19:29.167Z,1.65
2018-07-17T18:21:57.008Z,2.37
2018-07-17T18:24:25.042Z,4.25
2018-07-17T18:26:53.102Z,3.92
2018-07-17T18:29:21.019Z,1.92
2018-07-17T18:31:48.933Z,1.60
2018-07-17T18:34:16.824Z,0.78
2018-07-17T18:36:45.696Z,1.62
2018-07-17T18:39:13.560Z,2.05
2018-07-17T18:41:41.675Z,0.90
2018-07-17T18:44:09.519Z,2.00
2018-07-17T18:46:37.426Z,7.83
2018-07-17T18:49:05.250Z,2.75
2018-07-17T18:51:33.082Z,4.28
2018-07-17T18:54:00.962Z,3.90
2018-07-17T18:56:28.826Z,2.22
2018-07-17T18:58:56.723Z,1.30
2018-07-17T19:01:24.608Z,3.22
2018-07-17T19:03:52.402Z,4.62
2018-07-17T19:06:20.253Z,2.83
2018-07-17T19:08:48.119Z,4.62
2018-07-17T19:11:16.032Z,2.85
2018-07-17T19:13:43.882Z,2.45
2018-07-17T19:16:11.749Z,2.62
2018-07-17T19:18:39.641Z,2.62
2018-07-17T19:21:07.479Z,2.60
2018-07-17T19:23:35.435Z,2.50
2018-07-17T19:26:03.281Z,3.62
2018-07-17T19:28:31.224Z,5.70
2018-07-17T19:30:59.098Z,3.92
2018-07-17T19:33:27.053Z,0.70
2018-07-17T19:35:55.954Z,0.88
2018-07-17T19:38:23.917Z,0.40
2018-07-17T19:40:51.872Z,1.90
2018-07-17T19:43:19.784Z,1.75
2018-07-17T19:45:47.659Z,1.35
2018-07-17T19:48:15.597Z,1.75
2018-07-17T19:50:44.413Z,3.08
2018-07-17T19:53:12.329Z,4.60
2018-07-17T19:55:41.204Z,2.58
2018-07-17T19:58:09.153Z,3.15
2018-07-17T20:00:37.170Z,2.58
2018-07-17T20:03:05.176Z,3.20
2018-07-17T20:05:33.078Z,2.87
2018-07-17T20:08:00.978Z,4.72
2018-07-17T20:10:28.799Z,2.42
2018-07-17T20:12:56.635Z,4.10
2018-07-17T20:15:24.451Z,1.02
2018-07-17T20:17:52.274Z,8.73
2018-07-17T20:20:20.120Z,2.35
2018-07-17T20:22:47.957Z,3.72
2018-07-17T20:25:16.050Z,2.87
2018-07-17T20:27:43.898Z,0.55
2018-07-17T20:30:12.769Z,2.75
2018-07-17T20:32:40.625Z,4.75
2018-07-17T20:35:10.582Z,3.22
2018-07-17T20:37:38.488Z,2.58
2018-07-17T20:40:07.335Z,7.80
2018-07-17T20:42:35.134Z,5.08
2018-07-17T20:45:03.035Z,9.75
2018-07-17T20:47:30.863Z,2.95
2018-07-17T20:49:58.736Z,2.67
2018-07-17T20:52:26.719Z,3.55
2018-07-17T20:54:55.597Z,3.50
2018-07-17T20:57:23.451Z,1.32
2018-07-17T20:59:51.394Z,2.00
2018-07-17T21:02:19.193Z,5.12
2018-07-17T21:04:47.110Z,10.20
2018-07-17T21:07:16.068Z,1.17
2018-07-17T21:09:43.867Z,3.37
2018-07-17T21:12:11.724Z,3.25
2018-07-17T21:14:39.580Z,3.20
2018-07-17T21:17:07.344Z,0.47
2018-07-17T21:19:35.135Z,2.98
2018-07-17T21:22:02.960Z,1.55
2018-07-17T21:24:30.808Z,1.05
2018-07-17T21:26:58.667Z,3.98
2018-07-17T21:29:26.522Z,1.45
2018-07-17T21:31:56.410Z,4.15
2018-07-17T21:34:25.454Z,3.65
2018-07-17T21:36:53.270Z,3.65
2018-07-17T21:39:21.112Z,4.05
2018-07-17T21:41:48.917Z,1.80
2018-07-17T21:44:16.785Z,3.98
2018-07-17T21:46:44.588Z,0.93
2018-07-17T21:49:12.412Z,5.87
2018-07-17T21:51:40.212Z,8.08
2018-07-17T21:54:08.007Z,6.22
2018-07-17T21:56:36.775Z,3.05
2018-07-17T21:59:04.668Z,3.40
2018-07-17T22:01:32.492Z,3.00
2018-07-17T22:04:01.318Z,5.83
2018-07-17T22:06:29.125Z,9.15
2018-07-17T22:08:56.945Z,2.70
2018-07-17T22:11:24.776Z,4.87
2018-07-17T22:13:52.633Z,6.35
2018-07-17T22:16:20.459Z,2.00
2018-07-17T22:18:48.297Z,3.40
2018-07-17T22:21:16.077Z,3.75
2018-07-17T22:23:43.839Z,4.20
2018-07-17T22:26:11.670Z,9.28
2018-07-17T22:28:39.495Z,3.72
2018-07-17T22:31:07.337Z,8.55
2018-07-17T22:33:35.166Z,6.03
2018-07-17T22:36:03.023Z,5.05
2018-07-17T22:38:30.856Z,3.75
2018-07-17T22:40:58.709Z,3.05
2018-07-17T22:43:26.559Z,3.08
2018-07-17T22:45:54.449Z,4.05
2018-07-17T22:48:22.236Z,2.65
2018-07-17T22:50:50.136Z,5.78
2018-07-17T22:53:17.915Z,5.12
2018-07-17T22:55:45.729Z,4.55
2018-07-17T22:58:13.583Z,2.70
2018-07-17T23:00:41.425Z,4.67
2018-07-17T23:03:09.326Z,3.02
2018-07-17T23:05:37.272Z,2.90
2018-07-17T23:08:05.239Z,4.53
2018-07-17T23:10:33.018Z,1.62
2018-07-17T23:13:01.874Z,3.20
2018-07-17T23:15:29.744Z,5.33
2018-07-17T23:17:58.627Z,5.65
2018-07-17T23:20:26.463Z,3.65
2018-07-17T23:22:55.558Z,5.20
2018-07-17T23:25:24.487Z,6.60
2018-07-17T23:27:52.549Z,4.45
2018-07-17T23:30:20.445Z,3.08
2018-07-17T23:32:49.548Z,6.55
2018-07-17T23:35:18.070Z,3.65
2018-07-17T23:37:45.955Z,2.58
2018-07-17T23:40:15.106Z,3.52
2018-07-17T23:42:42.995Z,4.67
2018-07-17T23:45:11.026Z,2.10
2018-07-17T23:47:38.937Z,5.80
2018-07-17T23:50:06.859Z,5.25
2018-07-17T23:52:34.727Z,7.85
2018-07-17T23:55:02.783Z,5.42
2018-07-17T23:57:30.647Z,4.97
